Alturas Rancheria, California
Current Conditions -  °F | °C
As of 4:59 AM on Wednesday 26 Nov 2014 (Local Time) from KAAT Reporting Station
Haze Haze  
Wind Chill: 25°   Ceiling: Unl
Heat Index: 25°   Visibility: 3mi
Dew Point: 23°   Wind: 0mph
Humidity: 92%   Direction: NA
Pressure: 30.39"   Gusts: NA
Location:  41.4836°N, 120.55°W
Report Text: KAAT 261259Z AUTO 00000KT 3SM BR SCT001 M04/M05 A3039 RMK AO2 T10391050 $
Loading
Personal Weather Stations






























Interactive Weather Map New forecast layout! Learn more

10-Day Weather Forecast

Advertisements
Track Severe Weather on mobile